Weather at Palma de Mallorca Airport

Public forecast

Using degrees Celsius for public forecast. Weather courtesy of forecast.io.

Current aviation weather report (METAR) for Palma de Mallorca Airport

Retrieved 2022/08/12 09:30 UTC (2 minutes ago):

LEPA 120930Z 21007KT 180V240 CAVOK 31/23 Q1014 NOSIG

Aviation forecast (TAF) for Palma de Mallorca Airport

Retrieved 2022/08/12 06:27 UTC (3 hours ago):

TAF LEPA 120500Z 1206/1306 VRB03KT CAVOK TX32/1212Z TN21/1206Z BECMG 1208/1210 22010KT BECMG 1220/1222 VRB03KT